createdAt,value
2023-05-14T00:02:55.498Z,13.80
2023-05-14T00:08:05.564Z,13.90
2023-05-14T00:13:15.246Z,11.40
2023-05-14T00:18:25.108Z,12.70
2023-05-14T00:23:36.783Z,13.60
2023-05-14T00:28:46.620Z,15.90
2023-05-14T00:33:56.230Z,11.90
2023-05-14T00:39:05.981Z,14.30
2023-05-14T00:44:16.148Z,10.50
2023-05-14T00:49:26.790Z,12.50
2023-05-14T00:54:37.655Z,13.90
2023-05-14T00:59:47.542Z,10.80
2023-05-14T01:04:58.508Z,13.40
2023-05-14T01:10:16.495Z,10.80
2023-05-14T01:15:30.427Z,12.70
2023-05-14T01:20:40.219Z,11.40
2023-05-14T01:25:49.997Z,10.30
2023-05-14T01:31:08.404Z,9.90
2023-05-14T01:36:18.678Z,10.40
2023-05-14T01:41:31.185Z,10.90
2023-05-14T01:46:41.274Z,12.90
2023-05-14T01:51:51.412Z,10.00
2023-05-14T01:57:01.318Z,11.20
2023-05-14T02:02:10.963Z,10.70
2023-05-14T02:07:21.087Z,10.60
2023-05-14T02:12:30.864Z,11.60
2023-05-14T02:17:40.550Z,11.00
2023-05-14T02:22:50.369Z,9.80
2023-05-14T02:27:59.851Z,10.90
2023-05-14T02:33:10.060Z,10.90
2023-05-14T02:38:20.128Z,10.40
2023-05-14T02:43:30.129Z,10.20
2023-05-14T02:48:40.024Z,9.60
2023-05-14T02:53:49.877Z,10.10
2023-05-14T02:58:59.436Z,11.00
2023-05-14T03:04:10.113Z,10.40
2023-05-14T03:09:20.234Z,10.70
2023-05-14T03:14:29.936Z,12.30
2023-05-14T03:19:39.640Z,12.70
2023-05-14T03:24:49.748Z,11.20
2023-05-14T03:29:59.489Z,9.80
2023-05-14T03:35:10.948Z,9.50
2023-05-14T03:40:21.827Z,11.00
2023-05-14T03:45:31.923Z,10.50
2023-05-14T03:50:41.949Z,10.90
2023-05-14T03:55:51.864Z,10.40
2023-05-14T04:01:01.819Z,12.80
2023-05-14T04:06:12.351Z,12.00
2023-05-14T04:11:22.183Z,15.50
2023-05-14T04:16:32.280Z,12.30
2023-05-14T04:21:41.958Z,12.60
2023-05-14T04:26:51.829Z,13.80
2023-05-14T04:32:01.598Z,13.00
2023-05-14T04:37:12.186Z,16.00
2023-05-14T04:42:21.842Z,13.40
2023-05-14T04:47:31.957Z,11.60
2023-05-14T04:52:42.114Z,11.60
2023-05-14T04:57:52.024Z,12.90
2023-05-14T05:03:02.246Z,13.50
2023-05-14T05:08:12.863Z,11.20
2023-05-14T05:13:22.657Z,12.00
2023-05-14T05:18:32.637Z,11.40
2023-05-14T05:23:42.286Z,10.60
2023-05-14T05:28:51.938Z,10.30
2023-05-14T05:34:02.621Z,13.40
2023-05-14T05:39:12.475Z,9.30
2023-05-14T05:44:22.743Z,10.50
2023-05-14T05:49:32.411Z,12.20
2023-05-14T05:54:42.029Z,10.00
2023-05-14T05:59:51.617Z,10.40
2023-05-14T06:05:01.321Z,11.70
2023-05-14T06:10:13.060Z,10.00
2023-05-14T06:15:24.700Z,11.10
2023-05-14T06:20:34.651Z,10.20
2023-05-14T06:25:44.653Z,10.70
2023-05-14T06:30:56.206Z,13.60
2023-05-14T06:36:08.348Z,9.70
2023-05-14T06:41:18.540Z,8.30
2023-05-14T06:46:28.438Z,12.10
2023-05-14T06:51:39.340Z,9.50
2023-05-14T06:56:48.946Z,8.90
2023-05-14T07:01:58.758Z,7.80
2023-05-14T07:07:11.015Z,8.50
2023-05-14T07:12:20.777Z,9.10
2023-05-14T07:17:30.915Z,9.40
2023-05-14T07:22:40.674Z,12.30
2023-05-14T07:27:50.497Z,8.30
2023-05-14T07:33:00.292Z,7.50
2023-05-14T07:38:10.095Z,5.90
2023-05-14T07:43:19.561Z,6.70
2023-05-14T07:48:29.323Z,7.90
2023-05-14T07:53:39.080Z,5.40
2023-05-14T07:58:49.074Z,6.80
2023-05-14T08:03:59.267Z,6.00
2023-05-14T08:09:09.017Z,6.90
2023-05-14T08:14:18.574Z,6.20
2023-05-14T08:19:28.912Z,6.10
2023-05-14T08:24:39.211Z,7.50
2023-05-14T08:29:49.078Z,6.30
2023-05-14T08:34:58.934Z,7.80
2023-05-14T08:40:10.970Z,6.20
2023-05-14T08:45:26.441Z,6.10
2023-05-14T08:50:36.309Z,5.70
2023-05-14T08:55:48.328Z,5.70
2023-05-14T09:00:59.339Z,5.90
2023-05-14T09:06:10.581Z,5.40
2023-05-14T09:11:20.678Z,7.60
2023-05-14T09:16:31.461Z,5.90
2023-05-14T09:21:42.132Z,5.30
2023-05-14T09:26:56.485Z,5.90
2023-05-14T09:32:08.607Z,5.30
2023-05-14T09:37:18.237Z,5.50
2023-05-14T09:42:28.105Z,5.80
2023-05-14T09:47:37.878Z,6.80
2023-05-14T09:52:47.536Z,5.30
2023-05-14T09:57:57.444Z,6.30
2023-05-14T10:03:10.622Z,4.60
2023-05-14T10:08:28.729Z,4.70
2023-05-14T10:13:48.257Z,5.30
2023-05-14T10:19:07.532Z,6.50
2023-05-14T10:24:17.922Z,5.20
2023-05-14T10:29:37.834Z,5.50
2023-05-14T10:34:48.597Z,4.20
2023-05-14T10:40:03.232Z,5.80
2023-05-14T10:45:16.612Z,6.60
2023-05-14T10:50:26.486Z,4.90
2023-05-14T10:55:36.751Z,6.80
2023-05-14T11:00:49.088Z,5.20
2023-05-14T11:06:01.098Z,4.60
2023-05-14T11:11:12.233Z,4.60
2023-05-14T11:16:24.417Z,6.00
2023-05-14T11:21:34.756Z,6.40
2023-05-14T11:26:44.971Z,7.80
2023-05-14T11:31:56.032Z,4.30
2023-05-14T11:37:08.993Z,5.60
2023-05-14T11:42:20.045Z,5.20
2023-05-14T11:47:30.975Z,6.00
2023-05-14T11:52:44.369Z,5.60
2023-05-14T11:57:54.600Z,5.90
2023-05-14T12:03:04.504Z,8.10
2023-05-14T12:08:28.065Z,5.70
2023-05-14T12:13:38.060Z,5.60
2023-05-14T12:18:47.853Z,6.70
2023-05-14T12:24:03.871Z,6.00
2023-05-14T12:29:16.391Z,4.40
2023-05-14T12:34:25.880Z,5.40
2023-05-14T12:39:37.228Z,5.80
2023-05-14T12:44:46.815Z,4.90
2023-05-14T12:49:56.480Z,4.30
2023-05-14T12:55:06.871Z,6.80
2023-05-14T13:00:19.412Z,10.40
2023-05-14T13:05:29.327Z,4.30
2023-05-14T13:10:39.129Z,5.00
2023-05-14T13:15:49.242Z,4.80
2023-05-14T13:20:59.066Z,4.80
2023-05-14T13:26:08.688Z,4.50
2023-05-14T13:31:18.895Z,6.60
2023-05-14T13:36:28.973Z,4.70
2023-05-14T13:41:39.521Z,4.70
2023-05-14T13:46:49.160Z,4.70
2023-05-14T13:51:58.752Z,5.50
2023-05-14T13:57:09.295Z,5.40
2023-05-14T14:02:19.900Z,4.50
2023-05-14T14:07:29.593Z,4.60
2023-05-14T14:12:39.486Z,3.80
2023-05-14T14:17:49.499Z,4.80
2023-05-14T14:22:59.494Z,5.40
2023-05-14T14:28:09.228Z,4.20
2023-05-14T14:33:19.029Z,4.90
2023-05-14T14:38:29.717Z,4.30
2023-05-14T14:43:40.603Z,5.20
2023-05-14T14:48:50.958Z,4.80
2023-05-14T14:54:00.692Z,4.80
2023-05-14T14:59:10.308Z,4.40
2023-05-14T15:04:19.951Z,5.10
2023-05-14T15:09:29.886Z,5.40
2023-05-14T15:14:39.838Z,5.40
2023-05-14T15:19:49.449Z,9.00
2023-05-14T15:24:59.253Z,4.40
2023-05-14T15:30:11.750Z,5.20
2023-05-14T15:35:21.416Z,4.60
2023-05-14T15:40:31.887Z,5.10
2023-05-14T15:45:41.590Z,6.40
2023-05-14T15:50:53.061Z,5.50
2023-05-14T15:56:02.862Z,5.60
2023-05-14T16:01:12.542Z,4.20
2023-05-14T16:06:22.515Z,4.90
2023-05-14T16:11:32.400Z,5.80
2023-05-14T16:16:42.917Z,4.60
2023-05-14T16:21:52.532Z,4.20
2023-05-14T16:27:02.458Z,4.70
2023-05-14T16:32:12.700Z,4.90
2023-05-14T16:37:22.779Z,3.80
2023-05-14T16:42:32.434Z,5.40
2023-05-14T16:47:42.135Z,4.20
2023-05-14T16:52:51.839Z,5.90
2023-05-14T16:58:01.446Z,4.90
2023-05-14T17:03:11.081Z,4.90
2023-05-14T17:08:20.795Z,4.40
2023-05-14T17:13:30.440Z,5.30
2023-05-14T17:18:57.250Z,5.40
2023-05-14T17:24:07.501Z,6.80
2023-05-14T17:29:17.160Z,6.20
2023-05-14T17:34:27.003Z,4.50
2023-05-14T17:39:37.024Z,4.80
2023-05-14T17:44:46.596Z,4.70
2023-05-14T17:49:56.645Z,4.50
2023-05-14T17:55:07.116Z,5.70
2023-05-14T18:00:19.372Z,6.30
2023-05-14T18:05:30.244Z,4.80
2023-05-14T18:10:40.166Z,7.20
2023-05-14T18:15:52.031Z,6.80
2023-05-14T18:21:02.174Z,6.60
2023-05-14T18:26:12.154Z,7.80
2023-05-14T18:31:21.802Z,6.70
2023-05-14T18:36:31.945Z,8.80
2023-05-14T18:41:41.557Z,10.10
2023-05-14T18:46:51.642Z,8.20
2023-05-14T18:52:01.159Z,11.60
2023-05-14T18:57:11.686Z,11.70
2023-05-14T19:02:21.783Z,10.60
2023-05-14T19:07:32.487Z,15.40
2023-05-14T19:12:42.328Z,13.30
2023-05-14T19:17:52.493Z,16.40
2023-05-14T19:23:02.301Z,14.20
2023-05-14T19:28:11.930Z,16.40
2023-05-14T19:33:21.451Z,11.90
2023-05-14T19:38:31.337Z,12.00
2023-05-14T19:43:40.937Z,10.10
2023-05-14T19:48:50.612Z,12.00
2023-05-14T19:54:00.183Z,13.20
2023-05-14T19:59:09.823Z,14.40
2023-05-14T20:04:20.066Z,14.80
2023-05-14T20:09:29.849Z,13.80
2023-05-14T20:14:41.268Z,17.80
2023-05-14T20:19:50.864Z,15.60
2023-05-14T20:25:00.907Z,19.50
2023-05-14T20:30:12.839Z,17.30
2023-05-14T20:35:23.570Z,13.50
2023-05-14T20:40:33.482Z,10.80
2023-05-14T20:45:43.764Z,10.90
2023-05-14T20:50:53.411Z,13.50
2023-05-14T20:56:03.169Z,9.50
2023-05-14T21:01:12.729Z,9.90
2023-05-14T21:06:22.493Z,8.90
2023-05-14T21:11:32.075Z,11.10
2023-05-14T21:16:42.419Z,12.50
2023-05-14T21:21:51.976Z,10.20
2023-05-14T21:27:01.753Z,8.50
2023-05-14T21:32:12.340Z,11.40
2023-05-14T21:37:22.151Z,11.70
2023-05-14T21:42:31.844Z,10.90
2023-05-14T21:47:42.473Z,13.90
2023-05-14T21:52:52.098Z,12.40
2023-05-14T21:58:02.881Z,13.60
2023-05-14T22:03:12.657Z,12.20
2023-05-14T22:08:22.574Z,13.70
2023-05-14T22:13:32.358Z,10.40
2023-05-14T22:18:42.893Z,11.10
2023-05-14T22:23:52.485Z,12.50
2023-05-14T22:29:02.842Z,12.80
2023-05-14T22:34:12.518Z,8.90
2023-05-14T22:39:22.309Z,9.00
2023-05-14T22:44:31.803Z,8.20
2023-05-14T22:49:43.182Z,10.30
2023-05-14T22:54:53.499Z,12.00
2023-05-14T23:00:04.424Z,12.70
2023-05-14T23:05:15.037Z,11.90
2023-05-14T23:10:24.948Z,9.70
2023-05-14T23:15:34.666Z,12.80
2023-05-14T23:20:44.278Z,10.10
2023-05-14T23:25:56.294Z,11.70
2023-05-14T23:31:06.182Z,11.00
2023-05-14T23:36:16.668Z,9.60
2023-05-14T23:41:26.302Z,9.30
2023-05-14T23:46:35.919Z,8.90
2023-05-14T23:51:46.292Z,9.10
2023-05-14T23:56:55.976Z,8.00
